Terminal Aerodrome Forecast
Issued by NWS

Home | Current Version | Previous Version | Text Only | Print | Product List | Glossary On
Versions: 1 2 3 4 5 6 7 8 9 10 11 12 13 14 15 16 17 18 19 20 21 22 23 24 25 26 27 28 29 30 31 32
000
FTUS43 KDLH 282000 AAA
TAFHYR
TAF AMD
KHYR 282008Z 2820/2918 21010KT P6SM SCT060
     FM290100 VRB04KT P6SM FEW250
     FM290600 01010G18KT P6SM SCT015 BKN035
     FM290800 03012G20KT 6SM BR VCSH OVC015
     FM291000 04012G20KT 3SM -RA BR OVC007
     FM291300 04010G18KT P6SM -DZ OVC007=

USA.gov is the U.S. government's official web portal to all federal, state and local government web resources and services.